Time;durP1;ratioP1;P1;durP2;ratioP2;P2;SDS_P1;SDS_P2;PMS_P1;PMS_P2;Temp;Humidity;BMP_temperature;BMP_pressure;BME280_temperature;BME280_humidity;BME280_pressure;Samples;Min_cycle;Max_cycle;Signal;HPM_P1;HPM_P2
2024/02/28 00:02:03;;;;;;;30.48;12.45;;;;;;;-141.50;100.00;63355.56;5017283;28;20097;-82
2024/02/28 00:04:31;;;;;;;28.75;11.52;;;;;;;-141.50;100.00;63355.56;4997572;28;20042;-81
2024/02/28 00:06:58;;;;;;;31.00;11.93;;;;;;;-141.50;100.00;63355.56;5010790;28;20065;-82
2024/02/28 00:09:25;;;;;;;29.60;12.10;;;;;;;-141.50;100.00;63355.56;5012807;28;20049;-83
2024/02/28 00:11:52;;;;;;;25.85;11.18;;;;;;;-141.50;100.00;63355.56;5020741;28;20058;-84
2024/02/28 00:14:18;;;;;;;29.85;11.50;;;;;;;-141.50;100.00;63355.56;5016566;28;20064;-83
2024/02/28 00:16:47;;;;;;;27.55;10.75;;;;;;;-141.50;100.00;63355.56;5023216;28;20065;-80
2024/02/28 00:19:15;;;;;;;28.02;11.57;;;;;;;-141.50;100.00;63355.56;4988700;28;20110;-82
2024/02/28 00:21:42;;;;;;;25.90;10.70;;;;;;;-141.50;100.00;63355.56;4998509;28;20346;-83
2024/02/28 00:24:18;;;;;;;26.95;10.98;;;;;;;-141.50;100.00;63355.56;5016595;28;20566;-81
2024/02/28 00:26:45;;;;;;;31.30;11.27;;;;;;;-141.50;100.00;63355.56;5020032;28;20077;-82
2024/02/28 00:29:24;;;;;;;26.15;10.23;;;;;;;-141.50;100.00;63355.56;4996187;28;20042;-82
2024/02/28 00:31:51;;;;;;;27.55;11.02;;;;;;;-141.50;100.00;63355.56;5008740;28;20058;-82
2024/02/28 00:34:17;;;;;;;28.50;11.18;;;;;;;-141.50;100.00;63355.56;4994185;28;20050;-84
2024/02/28 00:36:44;;;;;;;25.58;10.20;;;;;;;-141.50;100.00;63355.56;4992380;28;20054;-81
2024/02/28 00:39:21;;;;;;;30.73;10.90;;;;;;;-141.50;100.00;63355.56;5007459;28;20053;-82
2024/02/28 00:41:48;;;;;;;29.60;11.13;;;;;;;-141.50;100.00;63355.56;4994119;28;20149;-83
2024/02/28 00:44:15;;;;;;;29.15;11.68;;;;;;;-141.50;100.00;63355.56;4993390;28;20069;-82
2024/02/28 00:46:42;;;;;;;30.30;12.02;;;;;;;-141.50;100.00;63355.56;4985056;28;20069;-85
2024/02/28 00:49:08;;;;;;;30.35;11.85;;;;;;;-141.50;100.00;63355.56;5006663;28;20080;-84
2024/02/28 00:51:37;;;;;;;26.02;10.63;;;;;;;-141.50;100.00;63355.56;5003912;28;20109;-83
2024/02/28 00:54:04;;;;;;;31.08;11.20;;;;;;;-141.50;100.00;63355.56;5020212;28;20050;-82
2024/02/28 00:56:30;;;;;;;30.98;11.27;;;;;;;-141.50;100.00;63355.56;5027406;28;20069;-82
2024/02/28 00:58:57;;;;;;;31.23;10.50;;;;;;;-141.50;100.00;63355.56;5009049;28;20070;-82
2024/02/28 01:01:24;;;;;;;27.83;10.55;;;;;;;-141.50;100.00;63355.56;5020990;28;20053;-82
2024/02/28 01:03:51;;;;;;;28.17;10.40;;;;;;;-141.50;100.00;63355.56;5018140;28;20054;-83
2024/02/28 01:06:18;;;;;;;31.08;10.35;;;;;;;-141.50;100.00;63355.56;4999864;28;20050;-82
2024/02/28 01:08:45;;;;;;;29.23;11.50;;;;;;;-141.50;100.00;63355.56;4987163;28;20066;-83
2024/02/28 01:11:12;;;;;;;29.20;11.05;;;;;;;-141.50;100.00;63355.56;5010308;28;20046;-83
2024/02/28 01:13:39;;;;;;;30.23;11.35;;;;;;;-141.50;100.00;63355.56;4994914;28;20070;-84
2024/02/28 01:16:06;;;;;;;29.85;11.57;;;;;;;-141.50;100.00;63355.56;5014984;28;20484;-82
2024/02/28 01:18:33;;;;;;;34.08;12.40;;;;;;;-141.50;100.00;63355.56;5016171;28;20492;-84
2024/02/28 01:21:00;;;;;;;34.22;12.00;;;;;;;-141.50;100.00;63355.56;5014505;28;20053;-83
2024/02/28 01:23:26;;;;;;;31.15;10.95;;;;;;;-141.50;100.00;63355.56;4987443;28;20035;-83
2024/02/28 01:25:53;;;;;;;35.47;11.45;;;;;;;-141.50;100.00;63355.56;4997342;28;20069;-80
2024/02/28 01:28:21;;;;;;;27.20;11.05;;;;;;;-141.50;100.00;63355.56;4999000;28;20073;-81
2024/02/28 01:30:48;;;;;;;37.53;11.90;;;;;;;-141.50;100.00;63355.56;4996039;28;20062;-83
2024/02/28 01:33:17;;;;;;;33.58;11.43;;;;;;;-141.50;100.00;63355.56;4992041;28;20050;-83
2024/02/28 01:35:44;;;;;;;39.03;13.73;;;;;;;-141.50;100.00;63355.56;5012320;28;22371;-82
2024/02/28 01:38:10;;;;;;;35.22;11.90;;;;;;;-141.50;100.00;63355.56;4995754;28;20053;-83
2024/02/28 01:40:38;;;;;;;28.13;11.48;;;;;;;-141.50;100.00;63355.56;4997237;28;20049;-83
2024/02/28 01:43:08;;;;;;;33.03;13.15;;;;;;;-141.50;100.00;63355.56;4996326;28;20385;-83
2024/02/28 01:45:35;;;;;;;35.30;12.43;;;;;;;-141.50;100.00;63355.56;4997902;28;20046;-81
2024/02/28 01:48:05;;;;;;;32.22;12.18;;;;;;;-141.50;100.00;63355.56;4978055;28;20373;-83
2024/02/28 01:50:33;;;;;;;33.00;11.63;;;;;;;-141.50;100.00;63355.56;5013326;28;20052;-81
2024/02/28 01:53:01;;;;;;;31.70;11.35;;;;;;;-141.50;100.00;63355.56;5004980;28;20073;-82
2024/02/28 01:55:28;;;;;;;37.15;11.45;;;;;;;-141.50;100.00;63355.56;5003868;28;20042;-84
2024/02/28 01:57:55;;;;;;;36.05;11.85;;;;;;;-141.50;100.00;63355.56;4993216;28;20286;-84
2024/02/28 02:00:25;;;;;;;39.00;11.57;;;;;;;-141.50;100.00;63355.56;4985528;28;20559;-83
2024/02/28 02:02:51;;;;;;;33.28;11.80;;;;;;;-141.50;100.00;63355.56;5016089;28;20068;-83
2024/02/28 02:05:20;;;;;;;41.95;12.18;;;;;;;-141.50;100.00;63355.56;5015238;28;20073;-84
2024/02/28 02:07:48;;;;;;;35.67;11.63;;;;;;;-141.50;100.00;63355.56;5004698;28;20420;-83
2024/02/28 02:10:15;;;;;;;30.70;11.73;;;;;;;-141.50;100.00;63355.56;4998447;28;20116;-82
2024/02/28 02:12:42;;;;;;;31.85;11.98;;;;;;;-141.50;100.00;63355.56;5015643;28;20073;-82
2024/02/28 02:15:09;;;;;;;33.03;12.30;;;;;;;-141.50;100.00;63355.56;5016597;28;20054;-82
2024/02/28 02:17:36;;;;;;;32.45;11.52;;;;;;;-141.50;100.00;63355.56;5008428;28;20319;-82
2024/02/28 02:20:09;;;;;;;31.58;11.73;;;;;;;-141.50;100.00;63355.56;5006109;28;20047;-81
2024/02/28 02:22:38;;;;;;;35.78;12.18;;;;;;;-141.50;100.00;63355.56;5011306;28;20046;-83
2024/02/28 02:25:06;;;;;;;27.92;11.95;;;;;;;-141.50;100.00;63355.56;5017848;28;20080;-83
2024/02/28 02:27:33;;;;;;;33.05;12.15;;;;;;;-141.50;100.00;63355.56;5004613;28;20062;-81
2024/02/28 02:29:59;;;;;;;40.80;14.18;;;;;;;-141.50;100.00;63355.56;5014918;28;20118;-82
2024/02/28 02:32:26;;;;;;;30.27;12.02;;;;;;;-141.50;100.00;63355.56;4996302;28;20389;-83
2024/02/28 02:34:53;;;;;;;41.25;15.50;;;;;;;-141.50;100.00;63355.56;5000617;28;20066;-83
2024/02/28 02:37:20;;;;;;;35.97;12.98;;;;;;;-141.50;100.00;63355.56;5010944;28;20114;-82
2024/02/28 02:39:47;;;;;;;30.17;13.20;;;;;;;-141.50;100.00;63355.56;5009805;28;20121;-82
2024/02/28 02:42:14;;;;;;;39.75;13.52;;;;;;;-141.50;100.00;63355.56;5009900;28;20081;-81
2024/02/28 02:44:42;;;;;;;38.67;14.23;;;;;;;-141.50;100.00;63355.56;5008286;28;20055;-82
2024/02/28 02:47:09;;;;;;;34.90;13.35;;;;;;;-141.50;100.00;63355.56;5006047;28;20249;-82
2024/02/28 02:49:39;;;;;;;37.42;14.40;;;;;;;-141.50;100.00;63355.56;4985090;28;20054;-82
2024/02/28 02:52:06;;;;;;;37.78;13.73;;;;;;;-141.50;100.00;63355.56;4998581;28;20100;-82
2024/02/28 02:54:32;;;;;;;33.33;12.85;;;;;;;-141.50;100.00;63355.56;5016955;28;20076;-82
2024/02/28 02:56:59;;;;;;;37.08;13.65;;;;;;;-141.50;100.00;63355.56;5015983;28;20509;-81
2024/02/28 02:59:26;;;;;;;32.80;13.43;;;;;;;-141.50;100.00;63355.56;5014195;28;20532;-83
2024/02/28 03:01:52;;;;;;;38.78;13.45;;;;;;;-141.50;100.00;63355.56;5014196;28;20054;-84
2024/02/28 03:04:19;;;;;;;39.85;14.40;;;;;;;-141.50;100.00;63355.56;5007349;28;20062;-82
2024/02/28 03:06:46;;;;;;;34.53;14.10;;;;;;;-141.50;100.00;63355.56;5014495;28;20050;-83
2024/02/28 03:09:13;;;;;;;39.72;14.05;;;;;;;-141.50;100.00;63355.56;4996749;28;20058;-83
2024/02/28 03:11:40;;;;;;;41.45;14.77;;;;;;;-141.50;100.00;63355.56;5012792;28;20054;-80
2024/02/28 03:14:06;;;;;;;37.53;14.43;;;;;;;-141.50;100.00;63355.56;4994189;28;20050;-82
2024/02/28 03:16:41;;;;;;;39.22;14.05;;;;;;;-141.50;100.00;63355.56;4999520;28;20050;-82
2024/02/28 03:19:11;;;;;;;32.17;13.63;;;;;;;-141.50;100.00;63355.56;4996261;28;20057;-82
2024/02/28 03:21:37;;;;;;;38.90;13.32;;;;;;;-141.50;100.00;63355.56;4988739;28;20085;-81
2024/02/28 03:24:05;;;;;;;25.92;11.38;;;;;;;-141.50;100.00;63355.56;4991834;28;20062;-84
2024/02/28 03:26:32;;;;;;;32.63;12.25;;;;;;;-141.50;100.00;63355.56;5007558;28;20053;-84
2024/02/28 03:28:59;;;;;;;28.73;11.35;;;;;;;-141.50;100.00;63355.56;5032826;28;20053;-83
2024/02/28 03:31:26;;;;;;;36.53;13.38;;;;;;;-141.50;100.00;63355.56;5032781;28;20057;-81
2024/02/28 03:33:53;;;;;;;30.52;12.30;;;;;;;-141.50;100.00;63355.56;5002513;28;20054;-83
2024/02/28 03:36:20;;;;;;;36.78;12.52;;;;;;;-141.50;100.00;63355.56;4982600;28;20050;-83
2024/02/28 03:38:47;;;;;;;28.88;12.20;;;;;;;-141.50;100.00;63355.56;5012518;28;20054;-85
2024/02/28 03:41:14;;;;;;;34.85;12.52;;;;;;;-141.50;100.00;63355.56;5004159;28;20506;-82
2024/02/28 03:43:41;;;;;;;34.47;12.88;;;;;;;-141.50;100.00;63355.56;5021679;28;20050;-82
2024/02/28 03:46:09;;;;;;;29.60;12.77;;;;;;;-141.50;100.00;63355.56;4997441;28;20096;-85
2024/02/28 03:48:38;;;;;;;30.23;12.25;;;;;;;-141.50;100.00;63355.56;5023016;28;20112;-84
2024/02/28 03:51:05;;;;;;;30.75;12.68;;;;;;;-141.50;100.00;63355.56;5020885;28;20389;-81
2024/02/28 03:53:32;;;;;;;31.27;12.20;;;;;;;-141.50;100.00;63355.56;5004951;28;20053;-84
2024/02/28 03:55:58;;;;;;;31.63;12.88;;;;;;;-141.50;100.00;63355.56;5021023;28;20316;-85
2024/02/28 03:58:25;;;;;;;37.80;13.05;;;;;;;-141.50;100.00;63355.56;5004122;28;20056;-84
2024/02/28 04:00:52;;;;;;;33.28;12.32;;;;;;;-141.50;100.00;63355.56;5018852;28;20359;-83
2024/02/28 04:03:19;;;;;;;31.83;13.15;;;;;;;-141.50;100.00;63355.56;5008471;28;20073;-83
2024/02/28 04:05:45;;;;;;;32.78;12.25;;;;;;;-141.50;100.00;63355.56;5000857;28;20041;-82
2024/02/28 04:08:12;;;;;;;33.58;12.57;;;;;;;-141.50;100.00;63355.56;5020202;28;20116;-84
2024/02/28 04:10:40;;;;;;;28.73;12.10;;;;;;;-141.50;100.00;63355.56;5004091;28;20149;-83
2024/02/28 04:13:09;;;;;;;30.77;11.95;;;;;;;-141.50;100.00;63355.56;5019425;28;20056;-82
2024/02/28 04:15:37;;;;;;;28.98;11.27;;;;;;;-141.50;100.00;63355.56;4985070;28;20078;-83
2024/02/28 04:18:04;;;;;;;27.05;11.32;;;;;;;-141.50;100.00;63355.56;5018162;28;20052;-82
2024/02/28 04:20:31;;;;;;;33.42;11.18;;;;;;;-141.50;100.00;63355.56;4999208;28;20077;-84
2024/02/28 04:22:59;;;;;;;23.23;9.88;;;;;;;-141.50;100.00;63355.56;5011750;28;20052;-83
2024/02/28 04:25:26;;;;;;;29.38;10.02;;;;;;;-141.50;100.00;63355.56;5014504;28;20050;-83
2024/02/28 04:27:56;;;;;;;25.23;10.52;;;;;;;-141.50;100.00;63355.56;5011625;28;20057;-84
2024/02/28 04:30:24;;;;;;;27.00;10.25;;;;;;;-141.50;100.00;63355.56;5003936;28;20053;-82
2024/02/28 04:32:51;;;;;;;23.83;9.98;;;;;;;-141.50;100.00;63355.56;5000666;28;20046;-83
2024/02/28 04:35:18;;;;;;;29.02;10.57;;;;;;;-141.50;100.00;63355.56;4994681;28;20076;-82
2024/02/28 04:37:48;;;;;;;28.50;10.65;;;;;;;-141.50;100.00;63355.56;4993982;28;20619;-83
2024/02/28 04:40:15;;;;;;;29.08;10.48;;;;;;;-141.50;100.00;63355.56;4994429;28;20715;-84
2024/02/28 04:42:45;;;;;;;22.45;9.60;;;;;;;-141.50;100.00;63355.56;5012630;28;20526;-83
2024/02/28 04:45:11;;;;;;;26.55;9.55;;;;;;;-141.50;100.00;63355.56;4994610;28;20508;-83
2024/02/28 04:47:38;;;;;;;29.92;9.88;;;;;;;-141.50;100.00;63355.56;5013958;28;20061;-83
2024/02/28 04:50:11;;;;;;;22.85;9.40;;;;;;;-141.50;100.00;63355.56;5012171;28;20088;-82
2024/02/28 04:52:37;;;;;;;24.77;9.63;;;;;;;-141.50;100.00;63355.56;5014618;28;20058;-82
2024/02/28 04:55:04;;;;;;;24.83;9.68;;;;;;;-141.50;100.00;63355.56;4996445;28;20048;-82
2024/02/28 04:57:31;;;;;;;28.20;10.40;;;;;;;-141.50;100.00;63355.56;4996869;28;20089;-82
2024/02/28 04:59:58;;;;;;;24.15;9.35;;;;;;;-141.50;100.00;63355.56;4979668;28;20416;-83
2024/02/28 05:02:25;;;;;;;26.67;10.48;;;;;;;-141.50;100.00;63355.56;4993830;28;20050;-82
2024/02/28 05:04:52;;;;;;;27.02;9.85;;;;;;;-141.50;100.00;63355.56;5014632;28;20054;-84
2024/02/28 05:07:19;;;;;;;25.23;10.32;;;;;;;-141.50;100.00;63355.56;4998392;28;20049;-82
2024/02/28 05:09:46;;;;;;;24.38;9.65;;;;;;;-141.50;100.00;63355.56;4998994;28;20049;-83
2024/02/28 05:12:12;;;;;;;24.67;9.48;;;;;;;-141.50;100.00;63355.56;5015014;28;20058;-84
2024/02/28 05:14:40;;;;;;;28.42;10.15;;;;;;;-141.50;100.00;63355.56;5003158;28;20581;-84
2024/02/28 05:17:06;;;;;;;26.40;9.93;;;;;;;-141.50;100.00;63355.56;5021984;28;20038;-82
2024/02/28 05:19:33;;;;;;;34.15;10.05;;;;;;;-141.50;100.00;63355.56;4995302;28;20382;-80
2024/02/28 05:22:01;;;;;;;33.03;10.27;;;;;;;-141.50;100.00;63355.56;5014097;28;20056;-81
2024/02/28 05:24:28;;;;;;;31.00;10.73;;;;;;;-141.50;100.00;63355.56;5013860;28;20100;-81
2024/02/28 05:26:54;;;;;;;28.95;10.07;;;;;;;-141.50;100.00;63355.56;4994424;28;20061;-81
2024/02/28 05:29:21;;;;;;;31.20;9.88;;;;;;;-141.50;100.00;63355.56;5011951;28;20057;-82
2024/02/28 05:31:48;;;;;;;27.85;10.00;;;;;;;-141.50;100.00;63355.56;4993717;28;20512;-82
2024/02/28 05:34:16;;;;;;;28.50;9.68;;;;;;;-141.50;100.00;63355.56;4991094;28;20450;-82
2024/02/28 05:36:43;;;;;;;32.08;10.43;;;;;;;-141.50;100.00;63355.56;4986810;28;20065;-83
2024/02/28 05:39:10;;;;;;;30.67;10.32;;;;;;;-141.50;100.00;63355.56;4994775;28;20137;-82
2024/02/28 05:41:37;;;;;;;29.80;10.38;;;;;;;-141.50;100.00;63355.56;4994856;28;20057;-82
2024/02/28 05:44:04;;;;;;;30.65;10.52;;;;;;;-141.50;100.00;63355.56;5011101;28;20045;-82
2024/02/28 05:46:30;;;;;;;31.90;10.82;;;;;;;-141.50;100.00;63355.56;4989611;28;20058;-81
2024/02/28 05:48:57;;;;;;;34.35;9.73;;;;;;;-141.50;100.00;63355.56;5007097;28;20050;-82
2024/02/28 05:51:26;;;;;;;28.98;10.07;;;;;;;-141.50;100.00;63355.56;5011372;28;20085;-81
2024/02/28 05:53:53;;;;;;;31.85;9.25;;;;;;;-141.50;100.00;63355.56;4991570;28;20064;-82
2024/02/28 05:56:21;;;;;;;29.30;7.70;;;;;;;-141.50;100.00;63355.56;4977943;28;20066;-82
2024/02/28 05:58:50;;;;;;;24.65;7.50;;;;;;;-141.50;100.00;63355.56;4977357;28;20053;-83
2024/02/28 06:01:18;;;;;;;22.80;7.07;;;;;;;-141.50;100.00;63355.56;4994063;28;20097;-81
2024/02/28 06:03:46;;;;;;;28.05;7.60;;;;;;;-141.50;100.00;63355.56;5012038;28;20145;-81
2024/02/28 06:06:13;;;;;;;27.10;7.72;;;;;;;-141.50;100.00;63355.56;4995079;28;20092;-83
2024/02/28 06:08:41;;;;;;;29.75;8.40;;;;;;;-141.50;100.00;63355.56;4994497;28;20062;-82
2024/02/28 06:11:08;;;;;;;29.50;8.85;;;;;;;-141.50;100.00;63355.56;5012965;28;20064;-81
2024/02/28 06:13:35;;;;;;;27.70;8.35;;;;;;;-141.50;100.00;63355.56;4994709;28;20092;-81
2024/02/28 06:16:03;;;;;;;33.47;9.80;;;;;;;-141.50;100.00;63355.56;4999305;28;20096;-84
2024/02/28 06:18:33;;;;;;;36.28;10.30;;;;;;;-141.50;100.00;63355.56;4989984;28;20082;-83
2024/02/28 06:21:00;;;;;;;35.58;10.65;;;;;;;-141.50;100.00;63355.56;4990760;28;20057;-85
2024/02/28 06:23:28;;;;;;;31.58;10.38;;;;;;;-141.50;100.00;63355.56;5009004;28;22256;-84
2024/02/28 06:25:56;;;;;;;35.65;11.55;;;;;;;-141.50;100.00;63355.56;5009039;28;20447;-85
2024/02/28 06:28:24;;;;;;;37.33;12.05;;;;;;;-141.50;100.00;63355.56;4983727;28;20042;-83
2024/02/28 06:30:51;;;;;;;34.03;11.35;;;;;;;-141.50;100.00;63355.56;4989745;28;20429;-84
2024/02/28 06:33:18;;;;;;;34.33;11.48;;;;;;;-141.50;100.00;63355.56;4986253;28;20046;-85
2024/02/28 06:35:45;;;;;;;36.00;11.27;;;;;;;-141.50;100.00;63355.56;5005658;28;20527;-85
2024/02/28 06:38:12;;;;;;;44.58;12.35;;;;;;;-141.50;100.00;63355.56;4986576;28;20496;-84
2024/02/28 06:40:40;;;;;;;37.35;11.85;;;;;;;-141.50;100.00;63355.56;5008187;28;20068;-82
2024/02/28 06:43:06;;;;;;;37.25;13.43;;;;;;;-141.50;100.00;63355.56;5003409;28;20053;-82
2024/02/28 06:45:33;;;;;;;40.85;12.73;;;;;;;-141.50;100.00;63355.56;5002029;28;20061;-82
2024/02/28 06:48:00;;;;;;;42.13;13.93;;;;;;;-141.50;100.00;63355.56;4980089;28;20142;-83
2024/02/28 06:50:27;;;;;;;42.72;14.00;;;;;;;-141.50;100.00;63355.56;4989369;28;20076;-83
2024/02/28 06:52:53;;;;;;;40.55;13.00;;;;;;;-141.50;100.00;63355.56;4994530;28;20103;-83
2024/02/28 06:55:21;;;;;;;50.72;13.00;;;;;;;-141.50;100.00;63355.56;5010266;28;20156;-84
2024/02/28 06:57:48;;;;;;;41.80;13.30;;;;;;;-141.50;100.00;63355.56;5009201;28;20073;-84
2024/02/28 07:00:15;;;;;;;43.15;13.70;;;;;;;-141.50;100.00;63355.56;5006978;28;20061;-85
2024/02/28 07:02:43;;;;;;;43.38;13.90;;;;;;;-141.50;100.00;63355.56;4992865;28;20069;-78
2024/02/28 07:05:10;;;;;;;60.20;15.77;;;;;;;-141.50;100.00;63355.56;5010485;28;20033;-83
2024/02/28 07:07:37;;;;;;;41.42;15.32;;;;;;;-141.50;100.00;63355.56;4990998;28;20064;-85
2024/02/28 07:10:04;;;;;;;46.97;15.23;;;;;;;-141.50;100.00;63355.56;4991263;28;20046;-84
2024/02/28 07:12:31;;;;;;;50.13;15.35;;;;;;;-141.50;100.00;63355.56;5012765;28;20042;-85
2024/02/28 07:14:58;;;;;;;53.85;17.50;;;;;;;-141.50;100.00;63355.56;5023725;28;20140;-85
2024/02/28 07:17:25;;;;;;;49.88;14.73;;;;;;;-141.50;100.00;63355.56;5012284;28;20034;-85
2024/02/28 07:19:52;;;;;;;66.82;15.82;;;;;;;-141.50;100.00;63355.56;4991951;28;20415;-85
2024/02/28 07:22:21;;;;;;;58.47;17.52;;;;;;;-141.50;100.00;63355.56;4997804;28;20141;-85
2024/02/28 07:24:48;;;;;;;62.58;18.23;;;;;;;-141.50;100.00;63355.56;4991276;28;20294;-83
2024/02/28 07:27:15;;;;;;;69.97;20.25;;;;;;;-141.50;100.00;63355.56;5005215;28;20470;-84
2024/02/28 07:29:43;;;;;;;61.40;19.10;;;;;;;-141.50;100.00;63355.56;4991033;28;20053;-84
2024/02/28 07:32:10;;;;;;;57.92;18.35;;;;;;;-141.50;100.00;63355.56;5008245;28;20057;-84
2024/02/28 07:34:39;;;;;;;60.05;18.52;;;;;;;-141.50;100.00;63355.56;4990921;28;20133;-84
2024/02/28 07:37:06;;;;;;;64.75;19.15;;;;;;;-141.50;100.00;63355.56;5009275;28;20046;-84
2024/02/28 07:39:33;;;;;;;71.35;19.73;;;;;;;-141.50;100.00;63355.56;5007190;28;20555;-84
2024/02/28 07:41:59;;;;;;;62.95;19.10;;;;;;;-141.50;100.00;63355.56;4984815;28;20053;-84
2024/02/28 07:44:30;;;;;;;65.57;19.30;;;;;;;-141.50;100.00;63355.56;4990712;28;20048;-84
2024/02/28 07:46:58;;;;;;;71.38;20.73;;;;;;;-141.50;100.00;63355.56;5008808;28;20069;-83
2024/02/28 07:49:25;;;;;;;74.97;19.80;;;;;;;-141.50;100.00;63355.56;4983550;28;20041;-83
2024/02/28 07:51:54;;;;;;;67.40;20.45;;;;;;;-141.50;100.00;63355.56;5008355;28;20049;-84
2024/02/28 07:54:21;;;;;;;68.20;21.55;;;;;;;-141.50;100.00;63355.56;5007588;28;20124;-83
2024/02/28 07:56:48;;;;;;;72.20;21.70;;;;;;;-141.50;100.00;63355.56;4990760;28;20057;-84
2024/02/28 07:59:15;;;;;;;74.97;21.70;;;;;;;-141.50;100.00;63355.56;4990172;28;20571;-84
2024/02/28 08:01:42;;;;;;;69.95;19.08;;;;;;;-141.50;100.00;63355.56;5008667;28;20062;-85
2024/02/28 08:04:09;;;;;;;69.70;19.70;;;;;;;-141.50;100.00;63355.56;5008147;28;20141;-83
2024/02/28 08:06:35;;;;;;;86.03;21.50;;;;;;;-141.50;100.00;63355.56;4989677;28;20510;-84
2024/02/28 08:09:04;;;;;;;73.82;20.38;;;;;;;-141.50;100.00;63355.56;5006568;28;20045;-83
2024/02/28 08:11:31;;;;;;;78.72;21.35;;;;;;;-141.50;100.00;63355.56;5015451;28;20046;-84
2024/02/28 08:13:58;;;;;;;77.90;21.15;;;;;;;-141.50;100.00;63355.56;5006378;28;20058;-84
2024/02/28 08:16:24;;;;;;;66.15;19.83;;;;;;;-141.50;100.00;63355.56;4992185;28;20538;-85
2024/02/28 08:18:55;;;;;;;71.40;21.05;;;;;;;-141.50;100.00;63355.56;4999917;28;20415;-85
2024/02/28 08:21:22;;;;;;;77.30;21.40;;;;;;;-141.50;100.00;63355.56;5009384;28;20500;-83
2024/02/28 08:23:49;;;;;;;68.45;20.67;;;;;;;-141.50;100.00;63355.56;4990932;28;20594;-85
2024/02/28 08:26:15;;;;;;;63.90;19.08;;;;;;;-141.50;100.00;63355.56;5007443;28;20045;-85
2024/02/28 08:28:42;;;;;;;63.35;19.15;;;;;;;-141.50;100.00;63355.56;4989325;28;20053;-84
2024/02/28 08:31:09;;;;;;;70.53;19.13;;;;;;;-141.50;100.00;63355.56;4974020;28;20123;-82
2024/02/28 08:33:36;;;;;;;66.93;20.00;;;;;;;-141.50;100.00;63355.56;5012573;28;20057;-84
2024/02/28 08:36:03;;;;;;;75.47;19.42;;;;;;;-141.50;100.00;63355.56;4991359;28;20522;-85
2024/02/28 08:38:29;;;;;;;66.55;17.63;;;;;;;-141.50;100.00;63355.56;5008102;28;20068;-85
2024/02/28 08:40:56;;;;;;;61.83;16.83;;;;;;;-141.50;100.00;63355.56;5009420;28;20076;-85
2024/02/28 08:43:23;;;;;;;53.13;16.75;;;;;;;-141.50;100.00;63355.56;4972926;28;20129;-84
2024/02/28 08:45:51;;;;;;;53.50;16.63;;;;;;;-141.50;100.00;63355.56;4988830;28;20069;-84
2024/02/28 08:48:18;;;;;;;55.75;18.75;;;;;;;-141.50;100.00;63355.56;5006730;28;20623;-84
2024/02/28 08:50:45;;;;;;;58.10;17.15;;;;;;;-141.50;100.00;63355.56;5005618;28;20058;-84
2024/02/28 08:53:11;;;;;;;58.70;16.52;;;;;;;-141.50;100.00;63355.56;4988441;28;20050;-84
2024/02/28 08:55:41;;;;;;;51.30;15.23;;;;;;;-141.50;100.00;63355.56;4988843;28;20046;-84
2024/02/28 08:58:07;;;;;;;52.97;16.75;;;;;;;-141.50;100.00;63355.56;4995897;28;20061;-84
2024/02/28 09:00:34;;;;;;;51.70;14.85;;;;;;;-141.50;100.00;63355.56;4988798;28;20074;-84
2024/02/28 09:03:02;;;;;;;49.58;15.90;;;;;;;-141.50;100.00;63355.56;5007174;28;20122;-85
2024/02/28 09:05:28;;;;;;;52.28;16.20;;;;;;;-141.50;100.00;63355.56;4988116;28;20543;-85
2024/02/28 09:07:57;;;;;;;54.33;16.08;;;;;;;-141.50;100.00;63355.56;4972274;28;20468;-85
2024/02/28 09:10:24;;;;;;;52.17;15.15;;;;;;;-141.50;100.00;63355.56;5016403;28;20518;-86
2024/02/28 09:12:51;;;;;;;45.13;14.30;;;;;;;-141.50;100.00;63355.56;4995242;28;20061;-86
2024/02/28 09:15:19;;;;;;;39.63;12.88;;;;;;;-141.50;100.00;63355.56;4992917;28;20404;-84
2024/02/28 09:17:46;;;;;;;44.10;13.93;;;;;;;-141.50;100.00;63355.56;5006774;28;20516;-84
2024/02/28 09:20:15;;;;;;;44.63;14.02;;;;;;;-141.50;100.00;63355.56;4989923;28;20056;-85
2024/02/28 09:22:42;;;;;;;48.70;14.32;;;;;;;-141.50;100.00;63355.56;4988746;28;20062;-84
2024/02/28 09:25:09;;;;;;;46.85;14.60;;;;;;;-141.50;100.00;63355.56;5007152;28;20049;-84
2024/02/28 09:27:36;;;;;;;49.83;15.85;;;;;;;-141.50;100.00;63355.56;5007759;28;20084;-84
2024/02/28 09:30:04;;;;;;;53.95;15.57;;;;;;;-141.50;100.00;63355.56;4990170;28;20132;-85
2024/02/28 09:32:30;;;;;;;47.88;14.40;;;;;;;-141.50;100.00;63355.56;4973038;28;20441;-84
2024/02/28 09:34:57;;;;;;;47.35;14.05;;;;;;;-141.50;100.00;63355.56;4989419;28;20124;-85
2024/02/28 09:37:24;;;;;;;50.75;15.50;;;;;;;-141.50;100.00;63355.56;4983157;28;20389;-84
2024/02/28 09:39:52;;;;;;;48.60;15.38;;;;;;;-141.50;100.00;63355.56;4999271;28;20065;-85
2024/02/28 09:42:19;;;;;;;44.80;15.50;;;;;;;-141.50;100.00;63355.56;5011371;28;20111;-84
2024/02/28 09:44:47;;;;;;;44.05;15.07;;;;;;;-141.50;100.00;63355.56;4997285;28;20076;-84
2024/02/28 09:47:14;;;;;;;43.63;15.13;;;;;;;-141.50;100.00;63355.56;5010286;28;20084;-85
2024/02/28 09:49:42;;;;;;;46.65;15.93;;;;;;;-141.50;100.00;63355.56;4992330;28;20108;-85
2024/02/28 09:52:12;;;;;;;45.97;16.30;;;;;;;-141.50;100.00;63355.56;4992299;28;20042;-85
2024/02/28 09:54:39;;;;;;;42.63;14.95;;;;;;;-141.50;100.00;63355.56;4992544;28;20076;-84
2024/02/28 09:57:06;;;;;;;49.22;15.25;;;;;;;-141.50;100.00;63355.56;4993494;28;20411;-85
2024/02/28 09:59:33;;;;;;;42.30;13.90;;;;;;;-141.50;100.00;63355.56;4992423;28;20046;-83
2024/02/28 10:02:20;;;;;;;37.08;13.52;;;;;;;-141.50;100.00;63355.56;4998952;28;20412;-84
2024/02/28 10:04:47;;;;;;;38.90;13.25;;;;;;;-141.50;100.00;63355.56;4991434;28;20087;-84
2024/02/28 10:07:14;;;;;;;40.25;14.23;;;;;;;-141.50;100.00;63355.56;4998418;28;20080;-86
2024/02/28 10:09:42;;;;;;;44.10;14.32;;;;;;;-141.50;100.00;63355.56;4993934;28;20463;-85
2024/02/28 10:12:09;;;;;;;41.97;14.82;;;;;;;-141.50;100.00;63355.56;5009998;28;20046;-86
2024/02/28 10:14:36;;;;;;;41.22;14.38;;;;;;;-141.50;100.00;63355.56;4996043;28;20128;-85
2024/02/28 10:17:04;;;;;;;51.65;17.15;;;;;;;-141.50;100.00;63355.56;4995228;28;20049;-85
2024/02/28 10:19:31;;;;;;;51.05;17.17;;;;;;;-141.50;100.00;63355.56;5007741;28;20049;-84
2024/02/28 10:21:58;;;;;;;52.97;17.17;;;;;;;-141.50;100.00;63355.56;5010095;28;20116;-85
2024/02/28 10:24:25;;;;;;;48.53;17.05;;;;;;;-141.50;100.00;63355.56;5002679;28;20049;-85
2024/02/28 10:26:55;;;;;;;52.38;17.60;;;;;;;-141.50;100.00;63355.56;5006397;28;20104;-84
2024/02/28 10:29:25;;;;;;;48.95;17.80;;;;;;;-141.50;100.00;63355.56;4976019;28;20509;-84
2024/02/28 10:31:52;;;;;;;48.17;17.20;;;;;;;-141.50;100.00;63355.56;5008222;28;20057;-84
2024/02/28 10:34:19;;;;;;;48.50;17.77;;;;;;;-141.50;100.00;63355.56;4986401;28;20057;-84
2024/02/28 10:36:46;;;;;;;52.80;18.45;;;;;;;-141.50;100.00;63355.56;5015445;28;20045;-84
2024/02/28 10:39:14;;;;;;;54.22;18.75;;;;;;;-141.50;100.00;63355.56;5014301;28;20546;-85
2024/02/28 10:41:42;;;;;;;52.40;18.40;;;;;;;-141.50;100.00;63355.56;5010287;28;20599;-84
2024/02/28 10:44:12;;;;;;;48.45;18.73;;;;;;;-141.50;100.00;63355.56;4993739;28;20060;-83
2024/02/28 10:46:39;;;;;;;50.58;17.40;;;;;;;-141.50;100.00;63355.56;5010553;28;20050;-84
2024/02/28 10:49:06;;;;;;;49.03;17.92;;;;;;;-141.50;100.00;63355.56;4994212;28;20128;-84
2024/02/28 10:51:36;;;;;;;43.15;17.42;;;;;;;-141.50;100.00;63355.56;4993968;28;20080;-84
2024/02/28 10:54:11;;;;;;;42.38;15.60;;;;;;;-141.50;100.00;63355.56;5019618;28;20045;-84
2024/02/28 10:56:40;;;;;;;43.83;16.33;;;;;;;-141.50;100.00;63355.56;5004391;28;20057;-84